sensor_id;sensor_type;location;lat;lon;timestamp;P1;durP1;ratioP1;P2;durP2;ratioP2
20880;SDS011;10600;53.096;8.802;2023-08-08T00:00:17;6.72;;;2.83;;
20880;SDS011;10600;53.096;8.802;2023-08-08T00:01:18;6.80;;;3.03;;
20880;SDS011;10600;53.096;8.802;2023-08-08T00:02:19;7.35;;;2.92;;
20880;SDS011;10600;53.096;8.802;2023-08-08T00:03:21;5.90;;;3.33;;
20880;SDS011;10600;53.096;8.802;2023-08-08T00:04:22;6.60;;;2.75;;
20880;SDS011;10600;53.096;8.802;2023-08-08T00:05:23;8.90;;;3.05;;
20880;SDS011;10600;53.096;8.802;2023-08-08T00:06:24;5.75;;;2.58;;
20880;SDS011;10600;53.096;8.802;2023-08-08T00:07:29;4.72;;;2.00;;
20880;SDS011;10600;53.096;8.802;2023-08-08T00:08:30;3.97;;;2.63;;
20880;SDS011;10600;53.096;8.802;2023-08-08T00:09:31;5.10;;;2.20;;
20880;SDS011;10600;53.096;8.802;2023-08-08T00:10:32;5.75;;;3.17;;
20880;SDS011;10600;53.096;8.802;2023-08-08T00:11:33;5.97;;;3.03;;
20880;SDS011;10600;53.096;8.802;2023-08-08T00:12:35;4.00;;;2.50;;
20880;SDS011;10600;53.096;8.802;2023-08-08T00:13:36;7.68;;;3.42;;
20880;SDS011;10600;53.096;8.802;2023-08-08T00:14:50;4.20;;;1.98;;
20880;SDS011;10600;53.096;8.802;2023-08-08T00:15:54;7.88;;;2.95;;
20880;SDS011;10600;53.096;8.802;2023-08-08T00:16:58;8.95;;;4.05;;
20880;SDS011;10600;53.096;8.802;2023-08-08T00:18:03;5.60;;;2.63;;
20880;SDS011;10600;53.096;8.802;2023-08-08T00:19:04;6.75;;;2.70;;
20880;SDS011;10600;53.096;8.802;2023-08-08T00:20:15;7.82;;;3.40;;
20880;SDS011;10600;53.096;8.802;2023-08-08T00:21:25;7.72;;;2.75;;
20880;SDS011;10600;53.096;8.802;2023-08-08T00:22:29;8.32;;;3.17;;
20880;SDS011;10600;53.096;8.802;2023-08-08T00:23:30;5.57;;;3.33;;
20880;SDS011;10600;53.096;8.802;2023-08-08T00:24:31;9.23;;;3.90;;
20880;SDS011;10600;53.096;8.802;2023-08-08T00:25:32;3.83;;;2.50;;
20880;SDS011;10600;53.096;8.802;2023-08-08T00:26:33;8.57;;;3.13;;
20880;SDS011;10600;53.096;8.802;2023-08-08T00:27:35;7.43;;;3.22;;
20880;SDS011;10600;53.096;8.802;2023-08-08T00:28:41;4.65;;;2.80;;
20880;SDS011;10600;53.096;8.802;2023-08-08T00:29:42;6.05;;;3.33;;
20880;SDS011;10600;53.096;8.802;2023-08-08T00:30:43;5.80;;;3.45;;
20880;SDS011;10600;53.096;8.802;2023-08-08T00:31:44;7.28;;;2.70;;
20880;SDS011;10600;53.096;8.802;2023-08-08T00:32:45;6.25;;;3.10;;
20880;SDS011;10600;53.096;8.802;2023-08-08T00:33:46;6.13;;;2.97;;
20880;SDS011;10600;53.096;8.802;2023-08-08T00:34:47;7.20;;;2.88;;
20880;SDS011;10600;53.096;8.802;2023-08-08T00:35:48;8.40;;;3.20;;
20880;SDS011;10600;53.096;8.802;2023-08-08T00:36:49;7.07;;;2.80;;
20880;SDS011;10600;53.096;8.802;2023-08-08T00:37:50;4.35;;;2.58;;
20880;SDS011;10600;53.096;8.802;2023-08-08T00:38:51;4.70;;;2.80;;
20880;SDS011;10600;53.096;8.802;2023-08-08T00:39:52;4.57;;;3.10;;
20880;SDS011;10600;53.096;8.802;2023-08-08T00:40:53;4.65;;;2.65;;
20880;SDS011;10600;53.096;8.802;2023-08-08T00:41:55;7.50;;;2.90;;
20880;SDS011;10600;53.096;8.802;2023-08-08T00:42:56;7.78;;;3.97;;
20880;SDS011;10600;53.096;8.802;2023-08-08T00:43:57;4.80;;;3.40;;
20880;SDS011;10600;53.096;8.802;2023-08-08T00:44:58;7.50;;;3.10;;
20880;SDS011;10600;53.096;8.802;2023-08-08T00:46:04;7.30;;;3.38;;
20880;SDS011;10600;53.096;8.802;2023-08-08T00:47:07;9.55;;;3.78;;
20880;SDS011;10600;53.096;8.802;2023-08-08T00:48:11;6.47;;;3.05;;
20880;SDS011;10600;53.096;8.802;2023-08-08T00:49:15;4.35;;;2.53;;
20880;SDS011;10600;53.096;8.802;2023-08-08T00:50:16;7.93;;;3.67;;
20880;SDS011;10600;53.096;8.802;2023-08-08T00:51:18;4.32;;;3.13;;
20880;SDS011;10600;53.096;8.802;2023-08-08T00:52:19;7.53;;;3.03;;
20880;SDS011;10600;53.096;8.802;2023-08-08T00:53:20;6.10;;;4.00;;
20880;SDS011;10600;53.096;8.802;2023-08-08T00:54:26;5.95;;;2.85;;
20880;SDS011;10600;53.096;8.802;2023-08-08T00:55:27;12.23;;;3.85;;
20880;SDS011;10600;53.096;8.802;2023-08-08T00:56:28;6.60;;;3.33;;
20880;SDS011;10600;53.096;8.802;2023-08-08T00:57:29;7.25;;;3.53;;
20880;SDS011;10600;53.096;8.802;2023-08-08T00:58:45;5.82;;;3.00;;
20880;SDS011;10600;53.096;8.802;2023-08-08T00:59:47;6.95;;;3.13;;
20880;SDS011;10600;53.096;8.802;2023-08-08T01:00:48;6.60;;;2.95;;
20880;SDS011;10600;53.096;8.802;2023-08-08T01:01:49;7.65;;;3.50;;
20880;SDS011;10600;53.096;8.802;2023-08-08T01:02:50;7.22;;;2.75;;
20880;SDS011;10600;53.096;8.802;2023-08-08T01:03:51;7.63;;;3.65;;
20880;SDS011;10600;53.096;8.802;2023-08-08T01:04:53;6.30;;;3.33;;
20880;SDS011;10600;53.096;8.802;2023-08-08T01:05:57;8.77;;;3.63;;
20880;SDS011;10600;53.096;8.802;2023-08-08T01:07:22;4.72;;;3.03;;
20880;SDS011;10600;53.096;8.802;2023-08-08T01:08:27;7.47;;;3.65;;
20880;SDS011;10600;53.096;8.802;2023-08-08T01:10:50;6.90;;;2.97;;
20880;SDS011;10600;53.096;8.802;2023-08-08T01:11:55;6.60;;;3.42;;
20880;SDS011;10600;53.096;8.802;2023-08-08T01:12:58;6.75;;;3.33;;
20880;SDS011;10600;53.096;8.802;2023-08-08T01:14:00;7.88;;;3.38;;
20880;SDS011;10600;53.096;8.802;2023-08-08T01:15:01;7.22;;;3.55;;
20880;SDS011;10600;53.096;8.802;2023-08-08T01:16:03;8.73;;;3.80;;
20880;SDS011;10600;53.096;8.802;2023-08-08T01:17:05;9.00;;;3.90;;
20880;SDS011;10600;53.096;8.802;2023-08-08T01:18:07;7.50;;;4.00;;
20880;SDS011;10600;53.096;8.802;2023-08-08T01:19:08;7.85;;;3.30;;
20880;SDS011;10600;53.096;8.802;2023-08-08T01:20:13;7.35;;;3.78;;
20880;SDS011;10600;53.096;8.802;2023-08-08T01:21:17;10.02;;;3.92;;
20880;SDS011;10600;53.096;8.802;2023-08-08T01:22:23;7.45;;;4.28;;
20880;SDS011;10600;53.096;8.802;2023-08-08T01:23:28;6.47;;;3.75;;
20880;SDS011;10600;53.096;8.802;2023-08-08T01:24:31;5.88;;;3.40;;
20880;SDS011;10600;53.096;8.802;2023-08-08T01:25:34;7.50;;;3.22;;
20880;SDS011;10600;53.096;8.802;2023-08-08T01:26:35;6.30;;;2.85;;
20880;SDS011;10600;53.096;8.802;2023-08-08T01:27:36;11.63;;;3.70;;
20880;SDS011;10600;53.096;8.802;2023-08-08T01:28:38;7.82;;;3.35;;
20880;SDS011;10600;53.096;8.802;2023-08-08T01:29:41;6.13;;;2.95;;
20880;SDS011;10600;53.096;8.802;2023-08-08T01:30:43;11.05;;;4.30;;
20880;SDS011;10600;53.096;8.802;2023-08-08T01:31:44;9.60;;;3.97;;
20880;SDS011;10600;53.096;8.802;2023-08-08T01:32:45;5.05;;;3.00;;
20880;SDS011;10600;53.096;8.802;2023-08-08T01:33:47;8.45;;;3.90;;
20880;SDS011;10600;53.096;8.802;2023-08-08T01:34:52;9.45;;;5.10;;
20880;SDS011;10600;53.096;8.802;2023-08-08T01:35:59;6.00;;;3.45;;
20880;SDS011;10600;53.096;8.802;2023-08-08T01:37:09;5.30;;;3.03;;
20880;SDS011;10600;53.096;8.802;2023-08-08T01:38:17;6.97;;;4.20;;
20880;SDS011;10600;53.096;8.802;2023-08-08T01:39:21;8.48;;;4.25;;
20880;SDS011;10600;53.096;8.802;2023-08-08T01:40:25;4.47;;;2.65;;
20880;SDS011;10600;53.096;8.802;2023-08-08T01:41:27;6.90;;;3.28;;
20880;SDS011;10600;53.096;8.802;2023-08-08T01:42:28;7.75;;;4.45;;
20880;SDS011;10600;53.096;8.802;2023-08-08T01:43:30;8.73;;;3.65;;
20880;SDS011;10600;53.096;8.802;2023-08-08T01:44:31;5.68;;;3.50;;
20880;SDS011;10600;53.096;8.802;2023-08-08T01:45:32;11.13;;;4.40;;
20880;SDS011;10600;53.096;8.802;2023-08-08T01:46:33;4.20;;;3.30;;
20880;SDS011;10600;53.096;8.802;2023-08-08T01:47:36;8.73;;;3.97;;
20880;SDS011;10600;53.096;8.802;2023-08-08T01:48:45;6.32;;;3.10;;
20880;SDS011;10600;53.096;8.802;2023-08-08T01:49:49;5.78;;;4.15;;
20880;SDS011;10600;53.096;8.802;2023-08-08T01:50:50;8.55;;;3.55;;
20880;SDS011;10600;53.096;8.802;2023-08-08T01:51:52;6.80;;;3.72;;
20880;SDS011;10600;53.096;8.802;2023-08-08T01:52:54;8.55;;;3.70;;
20880;SDS011;10600;53.096;8.802;2023-08-08T01:53:58;7.13;;;3.53;;
20880;SDS011;10600;53.096;8.802;2023-08-08T01:54:59;21.20;;;4.30;;
20880;SDS011;10600;53.096;8.802;2023-08-08T01:56:00;8.15;;;3.70;;
20880;SDS011;10600;53.096;8.802;2023-08-08T01:57:03;8.60;;;3.72;;
20880;SDS011;10600;53.096;8.802;2023-08-08T01:58:04;6.93;;;3.80;;
20880;SDS011;10600;53.096;8.802;2023-08-08T01:59:06;6.75;;;3.28;;
20880;SDS011;10600;53.096;8.802;2023-08-08T02:00:07;8.02;;;4.05;;
20880;SDS011;10600;53.096;8.802;2023-08-08T02:01:08;7.70;;;4.38;;
20880;SDS011;10600;53.096;8.802;2023-08-08T02:02:09;6.28;;;4.15;;
20880;SDS011;10600;53.096;8.802;2023-08-08T02:03:10;3.90;;;3.10;;
20880;SDS011;10600;53.096;8.802;2023-08-08T02:04:12;7.82;;;3.85;;
20880;SDS011;10600;53.096;8.802;2023-08-08T02:05:13;6.18;;;4.05;;
20880;SDS011;10600;53.096;8.802;2023-08-08T02:06:14;13.32;;;4.40;;
20880;SDS011;10600;53.096;8.802;2023-08-08T02:07:15;11.45;;;4.45;;
20880;SDS011;10600;53.096;8.802;2023-08-08T02:08:16;8.73;;;4.68;;
20880;SDS011;10600;53.096;8.802;2023-08-08T02:09:18;8.50;;;3.97;;
20880;SDS011;10600;53.096;8.802;2023-08-08T02:10:19;4.43;;;2.78;;
20880;SDS011;10600;53.096;8.802;2023-08-08T02:11:20;10.43;;;4.38;;
20880;SDS011;10600;53.096;8.802;2023-08-08T02:12:21;9.40;;;4.07;;
20880;SDS011;10600;53.096;8.802;2023-08-08T02:13:22;7.75;;;4.05;;
20880;SDS011;10600;53.096;8.802;2023-08-08T02:14:27;8.18;;;4.13;;
20880;SDS011;10600;53.096;8.802;2023-08-08T02:15:35;10.70;;;4.60;;
20880;SDS011;10600;53.096;8.802;2023-08-08T02:16:36;7.60;;;4.25;;
20880;SDS011;10600;53.096;8.802;2023-08-08T02:17:39;4.75;;;3.72;;
20880;SDS011;10600;53.096;8.802;2023-08-08T02:18:40;9.13;;;4.00;;
20880;SDS011;10600;53.096;8.802;2023-08-08T02:19:41;8.52;;;4.65;;
20880;SDS011;10600;53.096;8.802;2023-08-08T02:20:42;9.70;;;4.38;;
20880;SDS011;10600;53.096;8.802;2023-08-08T02:21:46;8.95;;;4.85;;
20880;SDS011;10600;53.096;8.802;2023-08-08T02:22:47;7.40;;;4.10;;
20880;SDS011;10600;53.096;8.802;2023-08-08T02:23:48;6.85;;;4.03;;
20880;SDS011;10600;53.096;8.802;2023-08-08T02:24:49;9.20;;;4.38;;
20880;SDS011;10600;53.096;8.802;2023-08-08T02:25:50;7.88;;;4.57;;
20880;SDS011;10600;53.096;8.802;2023-08-08T02:26:51;8.38;;;4.47;;
20880;SDS011;10600;53.096;8.802;2023-08-08T02:27:52;7.68;;;4.38;;
20880;SDS011;10600;53.096;8.802;2023-08-08T02:29:03;5.30;;;3.72;;
20880;SDS011;10600;53.096;8.802;2023-08-08T02:30:04;7.50;;;5.03;;
20880;SDS011;10600;53.096;8.802;2023-08-08T02:31:06;9.40;;;4.72;;
20880;SDS011;10600;53.096;8.802;2023-08-08T02:32:07;7.45;;;4.15;;
20880;SDS011;10600;53.096;8.802;2023-08-08T02:33:09;8.98;;;4.97;;
20880;SDS011;10600;53.096;8.802;2023-08-08T02:34:10;11.15;;;5.25;;
20880;SDS011;10600;53.096;8.802;2023-08-08T02:35:11;9.45;;;4.35;;
20880;SDS011;10600;53.096;8.802;2023-08-08T02:36:21;7.22;;;4.28;;
20880;SDS011;10600;53.096;8.802;2023-08-08T02:37:48;10.60;;;5.43;;
20880;SDS011;10600;53.096;8.802;2023-08-08T02:38:52;8.32;;;5.45;;
20880;SDS011;10600;53.096;8.802;2023-08-08T02:39:53;8.38;;;4.78;;
20880;SDS011;10600;53.096;8.802;2023-08-08T02:40:54;10.52;;;5.65;;
20880;SDS011;10600;53.096;8.802;2023-08-08T02:41:55;9.23;;;5.03;;
20880;SDS011;10600;53.096;8.802;2023-08-08T02:42:57;6.85;;;5.13;;
20880;SDS011;10600;53.096;8.802;2023-08-08T02:43:58;8.65;;;4.90;;
20880;SDS011;10600;53.096;8.802;2023-08-08T02:44:59;8.63;;;4.82;;
20880;SDS011;10600;53.096;8.802;2023-08-08T02:46:00;11.27;;;4.97;;
20880;SDS011;10600;53.096;8.802;2023-08-08T02:47:01;9.85;;;5.55;;
20880;SDS011;10600;53.096;8.802;2023-08-08T02:48:02;8.73;;;4.50;;
20880;SDS011;10600;53.096;8.802;2023-08-08T02:49:07;10.63;;;5.35;;
20880;SDS011;10600;53.096;8.802;2023-08-08T02:50:11;9.93;;;4.95;;
20880;SDS011;10600;53.096;8.802;2023-08-08T02:51:12;10.82;;;5.40;;
20880;SDS011;10600;53.096;8.802;2023-08-08T02:52:13;9.15;;;5.00;;
20880;SDS011;10600;53.096;8.802;2023-08-08T02:53:17;9.63;;;5.35;;
20880;SDS011;10600;53.096;8.802;2023-08-08T02:54:18;9.25;;;4.90;;
20880;SDS011;10600;53.096;8.802;2023-08-08T02:55:19;10.68;;;5.07;;
20880;SDS011;10600;53.096;8.802;2023-08-08T02:56:20;9.00;;;5.35;;
20880;SDS011;10600;53.096;8.802;2023-08-08T02:57:30;10.98;;;5.38;;
20880;SDS011;10600;53.096;8.802;2023-08-08T02:58:31;9.88;;;5.82;;
20880;SDS011;10600;53.096;8.802;2023-08-08T02:59:32;10.65;;;5.47;;
20880;SDS011;10600;53.096;8.802;2023-08-08T03:00:33;8.55;;;5.10;;
20880;SDS011;10600;53.096;8.802;2023-08-08T03:01:35;6.78;;;4.82;;
20880;SDS011;10600;53.096;8.802;2023-08-08T03:02:39;8.52;;;5.22;;
20880;SDS011;10600;53.096;8.802;2023-08-08T03:03:40;7.80;;;4.90;;
20880;SDS011;10600;53.096;8.802;2023-08-08T03:04:41;10.45;;;5.47;;
20880;SDS011;10600;53.096;8.802;2023-08-08T03:05:43;9.20;;;5.70;;
20880;SDS011;10600;53.096;8.802;2023-08-08T03:06:44;11.35;;;4.68;;
20880;SDS011;10600;53.096;8.802;2023-08-08T03:07:45;9.45;;;5.78;;
20880;SDS011;10600;53.096;8.802;2023-08-08T03:08:46;9.20;;;4.45;;
20880;SDS011;10600;53.096;8.802;2023-08-08T03:09:47;9.90;;;5.40;;
20880;SDS011;10600;53.096;8.802;2023-08-08T03:10:48;10.35;;;5.22;;
20880;SDS011;10600;53.096;8.802;2023-08-08T03:11:49;13.38;;;6.43;;
20880;SDS011;10600;53.096;8.802;2023-08-08T03:12:50;8.27;;;5.32;;
20880;SDS011;10600;53.096;8.802;2023-08-08T03:13:51;11.15;;;6.15;;
20880;SDS011;10600;53.096;8.802;2023-08-08T03:14:53;7.38;;;5.53;;
20880;SDS011;10600;53.096;8.802;2023-08-08T03:15:57;10.90;;;5.45;;
20880;SDS011;10600;53.096;8.802;2023-08-08T03:16:58;11.90;;;5.35;;
20880;SDS011;10600;53.096;8.802;2023-08-08T03:17:59;9.93;;;6.40;;
20880;SDS011;10600;53.096;8.802;2023-08-08T03:19:00;13.23;;;6.22;;
20880;SDS011;10600;53.096;8.802;2023-08-08T03:20:01;9.90;;;5.38;;
20880;SDS011;10600;53.096;8.802;2023-08-08T03:21:05;11.05;;;6.30;;
20880;SDS011;10600;53.096;8.802;2023-08-08T03:22:06;10.05;;;6.18;;
20880;SDS011;10600;53.096;8.802;2023-08-08T03:23:08;9.55;;;6.03;;
20880;SDS011;10600;53.096;8.802;2023-08-08T03:24:09;7.95;;;5.00;;
20880;SDS011;10600;53.096;8.802;2023-08-08T03:25:10;10.15;;;5.22;;
20880;SDS011;10600;53.096;8.802;2023-08-08T03:26:11;10.70;;;5.68;;
20880;SDS011;10600;53.096;8.802;2023-08-08T03:27:12;11.68;;;5.60;;
20880;SDS011;10600;53.096;8.802;2023-08-08T03:28:14;12.35;;;6.50;;
20880;SDS011;10600;53.096;8.802;2023-08-08T03:29:15;8.18;;;5.75;;
20880;SDS011;10600;53.096;8.802;2023-08-08T03:30:16;10.73;;;6.32;;
20880;SDS011;10600;53.096;8.802;2023-08-08T03:31:17;12.50;;;6.70;;
20880;SDS011;10600;53.096;8.802;2023-08-08T03:32:23;11.32;;;5.07;;
20880;SDS011;10600;53.096;8.802;2023-08-08T03:33:24;10.68;;;6.10;;
20880;SDS011;10600;53.096;8.802;2023-08-08T03:34:25;7.88;;;4.68;;
20880;SDS011;10600;53.096;8.802;2023-08-08T03:35:26;11.65;;;6.22;;
20880;SDS011;10600;53.096;8.802;2023-08-08T03:36:27;9.32;;;6.20;;
20880;SDS011;10600;53.096;8.802;2023-08-08T03:37:28;7.78;;;6.10;;
20880;SDS011;10600;53.096;8.802;2023-08-08T03:38:35;10.10;;;6.18;;
20880;SDS011;10600;53.096;8.802;2023-08-08T03:39:38;10.85;;;5.10;;
20880;SDS011;10600;53.096;8.802;2023-08-08T03:40:42;11.07;;;7.13;;
20880;SDS011;10600;53.096;8.802;2023-08-08T03:41:43;10.80;;;6.28;;
20880;SDS011;10600;53.096;8.802;2023-08-08T03:42:44;10.20;;;6.45;;
20880;SDS011;10600;53.096;8.802;2023-08-08T03:43:45;10.20;;;6.35;;
20880;SDS011;10600;53.096;8.802;2023-08-08T03:44:46;12.32;;;5.50;;
20880;SDS011;10600;53.096;8.802;2023-08-08T03:45:51;12.35;;;7.05;;
20880;SDS011;10600;53.096;8.802;2023-08-08T03:46:52;9.50;;;6.05;;
20880;SDS011;10600;53.096;8.802;2023-08-08T03:47:53;10.80;;;6.43;;
20880;SDS011;10600;53.096;8.802;2023-08-08T03:48:54;9.38;;;5.95;;
20880;SDS011;10600;53.096;8.802;2023-08-08T03:49:55;8.10;;;5.90;;
20880;SDS011;10600;53.096;8.802;2023-08-08T03:50:57;8.57;;;5.05;;
20880;SDS011;10600;53.096;8.802;2023-08-08T03:51:58;9.85;;;5.85;;
20880;SDS011;10600;53.096;8.802;2023-08-08T03:52:59;11.45;;;5.32;;
20880;SDS011;10600;53.096;8.802;2023-08-08T03:54:00;10.13;;;6.35;;
20880;SDS011;10600;53.096;8.802;2023-08-08T03:55:03;7.32;;;5.40;;
20880;SDS011;10600;53.096;8.802;2023-08-08T03:56:04;9.95;;;6.13;;
20880;SDS011;10600;53.096;8.802;2023-08-08T03:57:07;13.55;;;5.57;;
20880;SDS011;10600;53.096;8.802;2023-08-08T03:58:08;10.80;;;6.60;;
20880;SDS011;10600;53.096;8.802;2023-08-08T03:59:09;15.10;;;6.38;;
20880;SDS011;10600;53.096;8.802;2023-08-08T04:00:10;10.68;;;5.57;;
20880;SDS011;10600;53.096;8.802;2023-08-08T04:01:11;9.32;;;5.00;;
20880;SDS011;10600;53.096;8.802;2023-08-08T04:02:12;12.88;;;6.28;;
20880;SDS011;10600;53.096;8.802;2023-08-08T04:03:14;12.75;;;5.82;;
20880;SDS011;10600;53.096;8.802;2023-08-08T04:04:15;11.50;;;6.00;;
20880;SDS011;10600;53.096;8.802;2023-08-08T04:05:16;15.05;;;6.97;;
20880;SDS011;10600;53.096;8.802;2023-08-08T04:06:17;11.02;;;6.90;;
20880;SDS011;10600;53.096;8.802;2023-08-08T04:07:22;11.52;;;5.80;;
20880;SDS011;10600;53.096;8.802;2023-08-08T04:08:23;10.43;;;5.80;;
20880;SDS011;10600;53.096;8.802;2023-08-08T04:09:24;10.98;;;6.18;;
20880;SDS011;10600;53.096;8.802;2023-08-08T04:10:25;13.82;;;6.32;;
20880;SDS011;10600;53.096;8.802;2023-08-08T04:11:26;9.25;;;5.30;;
20880;SDS011;10600;53.096;8.802;2023-08-08T04:12:35;11.18;;;5.38;;
20880;SDS011;10600;53.096;8.802;2023-08-08T04:13:36;11.25;;;6.25;;
20880;SDS011;10600;53.096;8.802;2023-08-08T04:14:41;10.73;;;6.57;;
20880;SDS011;10600;53.096;8.802;2023-08-08T04:15:42;9.32;;;5.72;;
20880;SDS011;10600;53.096;8.802;2023-08-08T04:16:43;14.50;;;6.45;;
20880;SDS011;10600;53.096;8.802;2023-08-08T04:17:44;9.02;;;5.75;;
20880;SDS011;10600;53.096;8.802;2023-08-08T04:18:45;8.40;;;6.07;;
20880;SDS011;10600;53.096;8.802;2023-08-08T04:19:46;11.63;;;5.80;;
20880;SDS011;10600;53.096;8.802;2023-08-08T04:20:48;11.63;;;7.68;;
20880;SDS011;10600;53.096;8.802;2023-08-08T04:21:49;10.10;;;6.03;;
20880;SDS011;10600;53.096;8.802;2023-08-08T04:22:50;8.40;;;6.28;;
20880;SDS011;10600;53.096;8.802;2023-08-08T04:23:51;9.07;;;6.70;;
20880;SDS011;10600;53.096;8.802;2023-08-08T04:24:52;8.43;;;5.78;;
20880;SDS011;10600;53.096;8.802;2023-08-08T04:25:53;9.90;;;6.13;;
20880;SDS011;10600;53.096;8.802;2023-08-08T04:26:54;9.35;;;5.85;;
20880;SDS011;10600;53.096;8.802;2023-08-08T04:27:56;11.63;;;5.57;;
20880;SDS011;10600;53.096;8.802;2023-08-08T04:28:57;12.75;;;5.72;;
20880;SDS011;10600;53.096;8.802;2023-08-08T04:29:58;9.25;;;5.47;;
20880;SDS011;10600;53.096;8.802;2023-08-08T04:30:59;8.60;;;6.10;;
20880;SDS011;10600;53.096;8.802;2023-08-08T04:32:00;9.55;;;5.65;;
20880;SDS011;10600;53.096;8.802;2023-08-08T04:33:01;12.02;;;6.78;;
20880;SDS011;10600;53.096;8.802;2023-08-08T04:34:02;11.48;;;6.10;;
20880;SDS011;10600;53.096;8.802;2023-08-08T04:35:04;10.18;;;5.10;;
20880;SDS011;10600;53.096;8.802;2023-08-08T04:36:07;15.13;;;7.22;;
20880;SDS011;10600;53.096;8.802;2023-08-08T04:37:08;11.88;;;6.22;;
20880;SDS011;10600;53.096;8.802;2023-08-08T04:38:09;11.70;;;6.65;;
20880;SDS011;10600;53.096;8.802;2023-08-08T04:39:10;10.40;;;6.60;;
20880;SDS011;10600;53.096;8.802;2023-08-08T04:40:11;14.60;;;6.25;;
20880;SDS011;10600;53.096;8.802;2023-08-08T04:41:13;8.52;;;5.70;;
20880;SDS011;10600;53.096;8.802;2023-08-08T04:42:14;10.45;;;6.20;;
20880;SDS011;10600;53.096;8.802;2023-08-08T04:43:15;11.32;;;5.93;;
20880;SDS011;10600;53.096;8.802;2023-08-08T04:44:16;9.27;;;6.20;;
20880;SDS011;10600;53.096;8.802;2023-08-08T04:45:17;10.68;;;6.13;;
20880;SDS011;10600;53.096;8.802;2023-08-08T04:46:18;8.18;;;5.78;;
20880;SDS011;10600;53.096;8.802;2023-08-08T04:47:19;14.95;;;6.72;;
20880;SDS011;10600;53.096;8.802;2023-08-08T04:48:20;10.30;;;5.97;;
20880;SDS011;10600;53.096;8.802;2023-08-08T04:49:21;10.13;;;6.13;;
20880;SDS011;10600;53.096;8.802;2023-08-08T04:50:22;14.68;;;6.68;;
20880;SDS011;10600;53.096;8.802;2023-08-08T04:51:24;11.18;;;6.15;;
20880;SDS011;10600;53.096;8.802;2023-08-08T04:52:25;15.55;;;5.93;;
20880;SDS011;10600;53.096;8.802;2023-08-08T04:53:26;11.32;;;6.25;;
20880;SDS011;10600;53.096;8.802;2023-08-08T04:54:27;10.88;;;6.65;;
20880;SDS011;10600;53.096;8.802;2023-08-08T04:55:28;13.15;;;6.65;;
20880;SDS011;10600;53.096;8.802;2023-08-08T04:56:29;14.00;;;6.35;;
20880;SDS011;10600;53.096;8.802;2023-08-08T04:57:30;10.27;;;6.05;;
20880;SDS011;10600;53.096;8.802;2023-08-08T04:58:31;12.27;;;6.10;;
20880;SDS011;10600;53.096;8.802;2023-08-08T04:59:32;12.68;;;6.10;;
20880;SDS011;10600;53.096;8.802;2023-08-08T05:00:33;10.00;;;5.97;;
20880;SDS011;10600;53.096;8.802;2023-08-08T05:01:34;10.00;;;6.75;;
20880;SDS011;10600;53.096;8.802;2023-08-08T05:02:35;14.27;;;5.88;;
20880;SDS011;10600;53.096;8.802;2023-08-08T05:03:36;15.15;;;6.30;;
20880;SDS011;10600;53.096;8.802;2023-08-08T05:04:37;14.10;;;7.38;;
20880;SDS011;10600;53.096;8.802;2023-08-08T05:05:38;13.82;;;5.45;;
20880;SDS011;10600;53.096;8.802;2023-08-08T05:06:39;11.40;;;5.90;;
20880;SDS011;10600;53.096;8.802;2023-08-08T05:07:40;16.70;;;6.25;;
20880;SDS011;10600;53.096;8.802;2023-08-08T05:08:41;12.63;;;6.38;;
20880;SDS011;10600;53.096;8.802;2023-08-08T05:09:43;15.40;;;6.60;;
20880;SDS011;10600;53.096;8.802;2023-08-08T05:10:47;10.32;;;6.05;;
20880;SDS011;10600;53.096;8.802;2023-08-08T05:11:54;11.65;;;5.60;;
20880;SDS011;10600;53.096;8.802;2023-08-08T05:12:55;9.32;;;5.75;;
20880;SDS011;10600;53.096;8.802;2023-08-08T05:13:56;11.45;;;5.82;;
20880;SDS011;10600;53.096;8.802;2023-08-08T05:14:57;10.85;;;5.78;;
20880;SDS011;10600;53.096;8.802;2023-08-08T05:15:58;9.88;;;6.38;;
20880;SDS011;10600;53.096;8.802;2023-08-08T05:17:01;11.02;;;5.82;;
20880;SDS011;10600;53.096;8.802;2023-08-08T05:18:05;10.90;;;5.50;;
20880;SDS011;10600;53.096;8.802;2023-08-08T05:19:07;11.63;;;5.93;;
20880;SDS011;10600;53.096;8.802;2023-08-08T05:20:10;9.02;;;6.00;;
20880;SDS011;10600;53.096;8.802;2023-08-08T05:21:12;10.90;;;5.57;;
20880;SDS011;10600;53.096;8.802;2023-08-08T05:22:13;9.27;;;4.75;;
20880;SDS011;10600;53.096;8.802;2023-08-08T05:23:14;12.80;;;5.70;;
20880;SDS011;10600;53.096;8.802;2023-08-08T05:24:15;7.72;;;4.72;;
20880;SDS011;10600;53.096;8.802;2023-08-08T05:25:16;7.25;;;4.80;;
20880;SDS011;10600;53.096;8.802;2023-08-08T05:26:17;9.13;;;4.63;;
20880;SDS011;10600;53.096;8.802;2023-08-08T05:27:19;11.00;;;4.30;;
20880;SDS011;10600;53.096;8.802;2023-08-08T05:28:20;14.80;;;5.22;;
20880;SDS011;10600;53.096;8.802;2023-08-08T05:29:21;11.68;;;5.07;;
20880;SDS011;10600;53.096;8.802;2023-08-08T05:30:22;10.02;;;4.85;;
20880;SDS011;10600;53.096;8.802;2023-08-08T05:31:23;8.40;;;4.72;;
20880;SDS011;10600;53.096;8.802;2023-08-08T05:32:24;8.23;;;5.25;;
20880;SDS011;10600;53.096;8.802;2023-08-08T05:33:25;8.40;;;4.78;;
20880;SDS011;10600;53.096;8.802;2023-08-08T05:34:26;10.57;;;5.07;;
20880;SDS011;10600;53.096;8.802;2023-08-08T05:35:28;10.65;;;4.20;;
20880;SDS011;10600;53.096;8.802;2023-08-08T05:36:30;9.02;;;5.28;;
20880;SDS011;10600;53.096;8.802;2023-08-08T05:37:34;14.55;;;5.63;;
20880;SDS011;10600;53.096;8.802;2023-08-08T05:38:36;8.82;;;5.13;;
20880;SDS011;10600;53.096;8.802;2023-08-08T05:39:37;9.93;;;5.30;;
20880;SDS011;10600;53.096;8.802;2023-08-08T05:40:38;10.55;;;5.03;;
20880;SDS011;10600;53.096;8.802;2023-08-08T05:41:39;8.07;;;4.20;;
20880;SDS011;10600;53.096;8.802;2023-08-08T05:42:43;7.65;;;4.72;;
20880;SDS011;10600;53.096;8.802;2023-08-08T05:43:44;11.05;;;2.95;;
20880;SDS011;10600;53.096;8.802;2023-08-08T05:44:45;9.57;;;4.95;;
20880;SDS011;10600;53.096;8.802;2023-08-08T05:45:46;16.30;;;5.03;;
20880;SDS011;10600;53.096;8.802;2023-08-08T05:46:47;3.88;;;2.55;;
20880;SDS011;10600;53.096;8.802;2023-08-08T05:47:52;9.07;;;4.97;;
20880;SDS011;10600;53.096;8.802;2023-08-08T05:48:53;6.72;;;4.50;;
20880;SDS011;10600;53.096;8.802;2023-08-08T05:49:54;7.45;;;4.32;;
20880;SDS011;10600;53.096;8.802;2023-08-08T05:50:55;7.65;;;4.00;;
20880;SDS011;10600;53.096;8.802;2023-08-08T05:52:01;6.35;;;4.45;;
20880;SDS011;10600;53.096;8.802;2023-08-08T05:53:05;13.48;;;5.05;;
20880;SDS011;10600;53.096;8.802;2023-08-08T05:54:06;12.07;;;5.25;;
20880;SDS011;10600;53.096;8.802;2023-08-08T05:55:07;10.48;;;4.82;;
20880;SDS011;10600;53.096;8.802;2023-08-08T05:56:10;7.47;;;4.68;;
20880;SDS011;10600;53.096;8.802;2023-08-08T05:57:11;11.77;;;4.43;;
20880;SDS011;10600;53.096;8.802;2023-08-08T05:58:13;7.75;;;4.63;;
20880;SDS011;10600;53.096;8.802;2023-08-08T05:59:13;11.82;;;5.00;;
20880;SDS011;10600;53.096;8.802;2023-08-08T06:00:15;10.40;;;4.72;;
20880;SDS011;10600;53.096;8.802;2023-08-08T06:01:16;10.40;;;4.78;;
20880;SDS011;10600;53.096;8.802;2023-08-08T06:02:17;9.90;;;4.78;;
20880;SDS011;10600;53.096;8.802;2023-08-08T06:03:18;8.27;;;5.10;;
20880;SDS011;10600;53.096;8.802;2023-08-08T06:04:19;10.38;;;4.45;;
20880;SDS011;10600;53.096;8.802;2023-08-08T06:05:21;8.85;;;5.28;;
20880;SDS011;10600;53.096;8.802;2023-08-08T06:06:23;10.88;;;4.90;;
20880;SDS011;10600;53.096;8.802;2023-08-08T06:07:24;12.63;;;4.75;;
20880;SDS011;10600;53.096;8.802;2023-08-08T06:08:25;9.65;;;4.15;;
20880;SDS011;10600;53.096;8.802;2023-08-08T06:09:26;13.07;;;5.60;;
20880;SDS011;10600;53.096;8.802;2023-08-08T06:10:28;6.00;;;3.65;;
20880;SDS011;10600;53.096;8.802;2023-08-08T06:11:29;9.43;;;4.40;;
20880;SDS011;10600;53.096;8.802;2023-08-08T06:12:30;10.18;;;4.18;;
20880;SDS011;10600;53.096;8.802;2023-08-08T06:13:31;6.47;;;3.90;;